Time;durP1;ratioP1;P1;durP2;ratioP2;P2;SDS_P1;SDS_P2;PMS_P1;PMS_P2;Temp;Humidity;BMP_temperature;BMP_pressure;BME280_temperature;BME280_humidity;BME280_pressure;Samples;Min_cycle;Max_cycle;Signal;HPM_P1;HPM_P2
2022/09/22 00:00:40;;;;;;;;;;;8.20;99.90;;;;;;5082249;28;20777;-73
2022/09/22 00:03:06;;;;;;;;;;;8.00;99.90;;;;;;5107294;28;19927;-74
2022/09/22 00:05:31;;;;;;;;;;;7.90;99.90;;;;;;5105326;28;19924;-74
2022/09/22 00:07:57;;;;;;;;;;;7.90;99.90;;;;;;5113560;28;19912;-74
2022/09/22 00:10:23;;;;;;;;;;;7.90;99.90;;;;;;5107834;28;19926;-74
2022/09/22 00:12:49;;;;;;;;;;;7.80;99.90;;;;;;5108807;28;19951;-74
2022/09/22 00:15:15;;;;;;;;;;;7.80;99.90;;;;;;5111245;28;19957;-74
2022/09/22 00:17:41;;;;;;;;;;;7.90;99.90;;;;;;5111398;28;20343;-74
2022/09/22 00:20:07;;;;;;;;;;;7.90;99.90;;;;;;5101418;28;19916;-74
2022/09/22 00:22:33;;;;;;;;;;;7.80;99.90;;;;;;5104478;28;19912;-74
2022/09/22 00:24:58;;;;;;;;;;;7.80;99.90;;;;;;5105394;28;19917;-74
2022/09/22 00:27:24;;;;;;;;;;;7.90;99.90;;;;;;5112880;28;20200;-74
2022/09/22 00:29:50;;;;;;;;;;;8.00;99.90;;;;;;5113663;28;19914;-74
2022/09/22 00:32:17;;;;;;;;;;;8.00;99.90;;;;;;5140744;27;19920;-74
2022/09/22 00:34:43;;;;;;;;;;;8.00;99.90;;;;;;5099133;28;19935;-74
2022/09/22 00:37:09;;;;;;;;;;;7.90;99.90;;;;;;5113416;27;20037;-73
2022/09/22 00:39:35;;;;;;;;;;;7.90;99.90;;;;;;5105633;27;19915;-74
2022/09/22 00:42:01;;;;;;;;;;;7.80;99.90;;;;;;5104763;27;19968;-73
2022/09/22 00:44:40;;;;;;;;;;;7.80;99.90;;;;;;5118143;28;19923;-73
2022/09/22 00:47:24;;;;;;;;;;;7.80;99.90;;;;;;5111203;27;19968;-73
2022/09/22 00:50:06;;;;;;;;;;;7.70;99.90;;;;;;5117427;28;19918;-73
2022/09/22 00:52:31;;;;;;;;;;;7.70;99.90;;;;;;5115515;28;19915;-73
2022/09/22 00:54:59;;;;;;;;;;;7.60;99.90;;;;;;5117633;28;20018;-73
2022/09/22 00:57:30;;;;;;;;;;;7.60;99.90;;;;;;5115626;28;19980;-73
2022/09/22 00:59:56;;;;;;;;;;;7.60;99.90;;;;;;5103848;28;20318;-73
2022/09/22 01:02:22;;;;;;;;;;;7.60;99.90;;;;;;5115497;27;19938;-73
2022/09/22 01:04:48;;;;;;;;;;;7.50;99.90;;;;;;5113242;27;19920;-73
2022/09/22 01:07:15;;;;;;;;;;;7.60;99.90;;;;;;5113524;27;20005;-74
2022/09/22 01:09:40;;;;;;;;;;;7.50;99.90;;;;;;5116646;27;19912;-73
2022/09/22 01:12:06;;;;;;;;;;;7.50;99.90;;;;;;5110712;27;20057;-73
2022/09/22 01:14:49;;;;;;;;;;;7.50;99.90;;;;;;5106386;27;19923;-73
2022/09/22 01:17:20;;;;;;;;;;;7.50;99.90;;;;;;5110908;27;19923;-73
2022/09/22 01:19:58;;;;;;;;;;;7.40;99.90;;;;;;5110674;27;19920;-73
2022/09/22 01:22:27;;;;;;;;;;;7.50;99.90;;;;;;5112240;27;19912;-74
2022/09/22 01:24:56;;;;;;;;;;;7.50;99.90;;;;;;5115353;28;19915;-74
2022/09/22 01:27:39;;;;;;;;;;;7.50;99.90;;;;;;5098034;28;19916;-73
2022/09/22 01:30:10;;;;;;;;;;;7.50;99.90;;;;;;5104342;27;19912;-73
2022/09/22 01:32:54;;;;;;;;;;;7.50;99.90;;;;;;5113814;28;19960;-73
2022/09/22 01:35:26;;;;;;;;;;;7.50;99.90;;;;;;5115838;28;20165;-73
2022/09/22 01:37:56;;;;;;;;;;;7.50;99.90;;;;;;5115377;28;19922;-73
2022/09/22 01:40:39;;;;;;;;;;;7.50;99.90;;;;;;5115067;28;20011;-73
2022/09/22 01:43:17;;;;;;;;;;;7.50;99.90;;;;;;5107748;28;19912;-73
2022/09/22 01:45:45;;;;;;;;;;;7.60;99.90;;;;;;5108987;27;19916;-74
2022/09/22 01:48:13;;;;;;;;;;;7.50;99.90;;;;;;5111029;28;20302;-73
2022/09/22 01:50:44;;;;;;;;;;;7.50;99.90;;;;;;5115286;28;19920;-75
2022/09/22 01:53:12;;;;;;;;;;;7.50;99.90;;;;;;5114451;28;19912;-74
2022/09/22 01:55:39;;;;;;;;;;;7.40;99.90;;;;;;5110637;28;19968;-74
2022/09/22 01:58:13;;;;;;;;;;;7.40;99.90;;;;;;5099379;28;19920;-73
2022/09/22 02:00:41;;;;;;;;;;;7.30;99.90;;;;;;5098324;27;19912;-74
2022/09/22 02:03:09;;;;;;;;;;;7.30;99.90;;;;;;5095521;28;19977;-74
2022/09/22 02:05:37;;;;;;;;;;;7.30;99.90;;;;;;5100504;28;19999;-74
2022/09/22 02:08:06;;;;;;;;;;;7.30;99.90;;;;;;5088620;28;19916;-74
2022/09/22 02:10:34;;;;;;;;;;;7.30;99.90;;;;;;5106315;28;19926;-73
2022/09/22 02:13:00;;;;;;;;;;;7.40;99.90;;;;;;5101478;28;19989;-73
2022/09/22 02:18:17;;;;;;;;;;;7.40;99.90;;;;;;5107071;28;19953;-73
2022/09/22 02:20:42;;;;;;;;;;;7.40;99.90;;;;;;5112648;28;19915;-73
2022/09/22 02:23:08;;;;;;;;;;;7.30;99.90;;;;;;5115353;28;19911;-74
2022/09/22 02:25:35;;;;;;;;;;;7.30;99.90;;;;;;5114687;28;19920;-74
2022/09/22 02:28:01;;;;;;;;;;;7.10;99.90;;;;;;5107210;27;20373;-74
2022/09/22 02:30:27;;;;;;;;;;;7.00;99.90;;;;;;5105025;27;19923;-74
2022/09/22 02:32:55;;;;;;;;;;;7.00;99.90;;;;;;5108539;28;20219;-74
2022/09/22 02:35:21;;;;;;;;;;;7.00;99.90;;;;;;5100743;28;19920;-73
2022/09/22 02:37:53;;;;;;;;;;;7.00;99.90;;;;;;5105137;27;20046;-74
2022/09/22 02:40:30;;;;;;;;;;;6.90;99.90;;;;;;5097612;28;19924;-74
2022/09/22 02:43:07;;;;;;;;;;;6.80;99.90;;;;;;5115504;28;19911;-74
2022/09/22 02:45:42;;;;;;;;;;;6.80;99.90;;;;;;5109990;28;19923;-73
2022/09/22 02:48:07;;;;;;;;;;;6.90;99.90;;;;;;5106425;28;19968;-74
2022/09/22 02:50:33;;;;;;;;;;;6.90;99.90;;;;;;5099726;28;20248;-74
2022/09/22 02:53:08;;;;;;;;;;;6.90;99.90;;;;;;5114275;28;20337;-74
2022/09/22 02:55:34;;;;;;;;;;;7.00;99.90;;;;;;5113430;28;19908;-74
2022/09/22 02:58:00;;;;;;;;;;;6.90;99.90;;;;;;5108212;28;19912;-74
2022/09/22 03:00:25;;;;;;;;;;;6.90;99.90;;;;;;5111974;28;19919;-74
2022/09/22 03:02:51;;;;;;;;;;;7.00;99.90;;;;;;5109476;28;19934;-74
2022/09/22 03:05:16;;;;;;;;;;;7.00;99.90;;;;;;5096728;28;19921;-74
2022/09/22 03:07:42;;;;;;;;;;;7.00;99.90;;;;;;5099252;28;19918;-74
2022/09/22 03:10:08;;;;;;;;;;;7.00;99.90;;;;;;5110013;28;20218;-74
2022/09/22 03:12:34;;;;;;;;;;;6.90;99.90;;;;;;5108405;28;19919;-74
2022/09/22 03:14:59;;;;;;;;;;;6.80;99.90;;;;;;5107842;28;19911;-74
2022/09/22 03:17:25;;;;;;;;;;;6.70;99.90;;;;;;5111227;27;19915;-74
2022/09/22 03:19:50;;;;;;;;;;;6.70;99.90;;;;;;5107360;28;19916;-74
2022/09/22 03:22:16;;;;;;;;;;;6.60;99.90;;;;;;5112272;28;19923;-74
2022/09/22 03:24:42;;;;;;;;;;;6.60;99.90;;;;;;5106324;28;19969;-75
2022/09/22 03:27:07;;;;;;;;;;;6.70;99.90;;;;;;5106618;28;19957;-74
2022/09/22 03:29:33;;;;;;;;;;;6.70;99.90;;;;;;5109428;28;19912;-74
2022/09/22 03:31:59;;;;;;;;;;;6.70;99.90;;;;;;5114112;28;19926;-74
2022/09/22 03:34:24;;;;;;;;;;;6.70;99.90;;;;;;5113039;28;19908;-74
2022/09/22 03:36:50;;;;;;;;;;;6.70;99.90;;;;;;5106950;28;19919;-74
2022/09/22 03:39:15;;;;;;;;;;;6.70;99.90;;;;;;5105434;28;19922;-74
2022/09/22 03:41:41;;;;;;;;;;;6.60;99.90;;;;;;5098310;28;19916;-74
2022/09/22 03:44:06;;;;;;;;;;;6.60;99.90;;;;;;5102714;28;20307;-74
2022/09/22 03:46:33;;;;;;;;;;;6.60;99.90;;;;;;5107808;28;19912;-73
2022/09/22 03:48:59;;;;;;;;;;;6.60;99.90;;;;;;5110227;28;19959;-74
2022/09/22 03:51:24;;;;;;;;;;;6.50;99.90;;;;;;5105372;28;19964;-74
2022/09/22 03:53:50;;;;;;;;;;;6.40;99.90;;;;;;5102097;28;19912;-74
2022/09/22 03:56:15;;;;;;;;;;;6.40;99.90;;;;;;5134884;27;19920;-74
2022/09/22 03:58:41;;;;;;;;;;;6.40;99.90;;;;;;5092011;28;20064;-75
2022/09/22 04:01:08;;;;;;;;;;;6.40;99.90;;;;;;5123334;28;19928;-75
2022/09/22 04:03:34;;;;;;;;;;;6.30;99.90;;;;;;5100722;28;19916;-74
2022/09/22 04:06:00;;;;;;;;;;;6.40;99.90;;;;;;5111958;28;19915;-74
2022/09/22 04:08:25;;;;;;;;;;;6.40;99.90;;;;;;5113191;28;20010;-75
2022/09/22 04:10:51;;;;;;;;;;;6.50;99.90;;;;;;5108169;28;19915;-74
2022/09/22 04:13:17;;;;;;;;;;;6.50;99.90;;;;;;5110676;27;19955;-74
2022/09/22 04:15:43;;;;;;;;;;;6.50;99.90;;;;;;5112040;28;19907;-74
2022/09/22 04:18:11;;;;;;;;;;;6.50;99.90;;;;;;5111388;27;20270;-74
2022/09/22 04:20:38;;;;;;;;;;;6.50;99.90;;;;;;5111577;27;19927;-75
2022/09/22 04:23:04;;;;;;;;;;;6.50;99.90;;;;;;5102798;28;19955;-75
2022/09/22 04:25:30;;;;;;;;;;;6.50;99.90;;;;;;5108466;27;19961;-75
2022/09/22 04:27:56;;;;;;;;;;;6.50;99.90;;;;;;5100844;28;19915;-75
2022/09/22 04:30:21;;;;;;;;;;;6.50;99.90;;;;;;5106034;28;19927;-75
2022/09/22 04:32:47;;;;;;;;;;;6.50;99.90;;;;;;5110236;28;19915;-75
2022/09/22 04:35:13;;;;;;;;;;;6.50;99.90;;;;;;5118298;27;20361;-75
2022/09/22 04:37:38;;;;;;;;;;;6.50;99.90;;;;;;5109689;28;19912;-75
2022/09/22 04:40:04;;;;;;;;;;;6.40;99.90;;;;;;5106574;27;20299;-75
2022/09/22 04:42:30;;;;;;;;;;;6.40;99.90;;;;;;5100816;28;19919;-75
2022/09/22 04:45:00;;;;;;;;;;;6.30;99.90;;;;;;5095758;28;20238;-74
2022/09/22 04:47:27;;;;;;;;;;;6.40;99.90;;;;;;5106752;28;20022;-75
2022/09/22 04:49:53;;;;;;;;;;;6.40;99.90;;;;;;5101241;28;19912;-75
2022/09/22 04:52:19;;;;;;;;;;;6.40;99.90;;;;;;5097394;28;20226;-75
2022/09/22 04:54:44;;;;;;;;;;;6.40;99.90;;;;;;5097429;28;20299;-75
2022/09/22 04:57:10;;;;;;;;;;;6.50;99.90;;;;;;5096715;28;19916;-75
2022/09/22 04:59:35;;;;;;;;;;;6.50;99.90;;;;;;5097438;28;19923;-75
2022/09/22 05:02:01;;;;;;;;;;;6.40;99.90;;;;;;5096075;28;20375;-75
2022/09/22 05:04:27;;;;;;;;;;;6.40;99.90;;;;;;5104445;28;20403;-76
2022/09/22 05:06:54;;;;;;;;;;;6.40;99.90;;;;;;5096933;27;19947;-75
2022/09/22 05:09:19;;;;;;;;;;;6.30;99.90;;;;;;5095507;28;19944;-75
2022/09/22 05:11:47;;;;;;;;;;;6.30;99.90;;;;;;5109469;27;20007;-75
2022/09/22 05:14:14;;;;;;;;;;;6.30;99.90;;;;;;5108752;27;19912;-76
2022/09/22 05:16:40;;;;;;;;;;;6.30;99.90;;;;;;5095413;28;19921;-75
2022/09/22 05:19:08;;;;;;;;;;;6.30;99.90;;;;;;5106928;28;19923;-75
2022/09/22 05:21:34;;;;;;;;;;;6.30;99.90;;;;;;5102619;27;20175;-76
2022/09/22 05:24:00;;;;;;;;;;;6.40;99.90;;;;;;5109849;28;19911;-75
2022/09/22 05:26:26;;;;;;;;;;;6.40;99.90;;;;;;5102398;28;20326;-75
2022/09/22 05:28:52;;;;;;;;;;;6.40;99.90;;;;;;5100616;28;19912;-75
2022/09/22 05:31:17;;;;;;;;;;;6.50;99.90;;;;;;5096035;27;20002;-75
2022/09/22 05:33:43;;;;;;;;;;;6.50;99.90;;;;;;5096009;27;19977;-75
2022/09/22 05:36:09;;;;;;;;;;;6.50;99.90;;;;;;5095796;28;19909;-75
2022/09/22 05:38:34;;;;;;;;;;;6.50;99.90;;;;;;5103195;28;19908;-75
2022/09/22 05:41:02;;;;;;;;;;;6.50;99.90;;;;;;5101259;28;20219;-75
2022/09/22 05:43:28;;;;;;;;;;;6.40;99.90;;;;;;5104127;27;19943;-75
2022/09/22 05:45:53;;;;;;;;;;;6.40;99.90;;;;;;5114617;28;19943;-74
2022/09/22 05:48:19;;;;;;;;;;;6.40;99.90;;;;;;5097661;28;19916;-75
2022/09/22 05:50:45;;;;;;;;;;;6.50;99.90;;;;;;5115423;28;19912;-75
2022/09/22 05:53:11;;;;;;;;;;;6.50;99.90;;;;;;5114513;28;19918;-75
2022/09/22 05:55:38;;;;;;;;;;;6.50;99.90;;;;;;5116565;28;19950;-73
2022/09/22 05:58:03;;;;;;;;;;;6.60;99.90;;;;;;5102768;28;19916;-73
2022/09/22 06:00:29;;;;;;;;;;;6.50;99.90;;;;;;5099448;27;20405;-74
2022/09/22 06:02:55;;;;;;;;;;;6.50;99.90;;;;;;5103171;28;19920;-74
2022/09/22 06:05:21;;;;;;;;;;;6.50;99.90;;;;;;5097985;27;19920;-74
2022/09/22 06:07:47;;;;;;;;;;;6.50;99.90;;;;;;5096879;28;20488;-74
2022/09/22 06:10:13;;;;;;;;;;;6.50;99.90;;;;;;5103734;27;19937;-74
2022/09/22 06:12:39;;;;;;;;;;;6.50;99.90;;;;;;5106146;27;20015;-74
2022/09/22 06:15:05;;;;;;;;;;;6.60;99.90;;;;;;5108886;27;19919;-74
2022/09/22 06:17:31;;;;;;;;;;;6.60;99.90;;;;;;5112727;28;20011;-74
2022/09/22 06:19:59;;;;;;;;;;;6.60;99.90;;;;;;5110208;28;20085;-74
2022/09/22 06:22:25;;;;;;;;;;;6.70;99.90;;;;;;5106630;27;19968;-74
2022/09/22 06:24:51;;;;;;;;;;;6.80;99.90;;;;;;5104595;27;20026;-74
2022/09/22 06:27:16;;;;;;;;;;;6.90;99.90;;;;;;5104016;28;19916;-74
2022/09/22 06:29:42;;;;;;;;;;;6.90;99.90;;;;;;5109484;28;19916;-75
2022/09/22 06:32:08;;;;;;;;;;;7.00;99.90;;;;;;5113085;28;19919;-74
2022/09/22 06:34:37;;;;;;;;;;;7.00;99.90;;;;;;5111188;28;20003;-74
2022/09/22 06:37:03;;;;;;;;;;;7.00;99.90;;;;;;5111813;28;19918;-74
2022/09/22 06:39:29;;;;;;;;;;;7.10;99.90;;;;;;5096676;28;19948;-74
2022/09/22 06:41:58;;;;;;;;;;;7.20;99.90;;;;;;5099695;27;19926;-74
2022/09/22 06:44:30;;;;;;;;;;;7.30;99.90;;;;;;5101600;28;20260;-74
2022/09/22 06:46:56;;;;;;;;;;;7.30;99.90;;;;;;5074789;28;20006;-73
2022/09/22 06:49:22;;;;;;;;;;;7.50;99.90;;;;;;5110250;28;20027;-74
2022/09/22 06:51:53;;;;;;;;;;;7.70;99.90;;;;;;5101848;28;19923;-74
2022/09/22 06:54:33;;;;;;;;;;;7.90;99.90;;;;;;5092815;28;19947;-75
2022/09/22 06:56:59;;;;;;;;;;;8.40;99.90;;;;;;5109557;28;19996;-74
2022/09/22 06:59:25;;;;;;;;;;;8.80;99.90;;;;;;5109898;28;19919;-74
2022/09/22 07:01:56;;;;;;;;;;;9.20;99.90;;;;;;5079257;28;20070;-74
2022/09/22 07:04:34;;;;;;;;;;;9.70;99.90;;;;;;5089051;27;19916;-74
2022/09/22 07:07:19;;;;;;;;;;;10.20;99.90;;;;;;5101964;28;19923;-74
2022/09/22 07:09:58;;;;;;;;;;;11.00;99.90;;;;;;5093042;28;19915;-73
2022/09/22 07:12:27;;;;;;;;;;;11.60;99.90;;;;;;5099551;28;19923;-73
2022/09/22 07:14:54;;;;;;;;;;;12.30;99.90;;;;;;5078634;28;19912;-72
2022/09/22 07:17:22;;;;;;;;;;;12.70;99.90;;;;;;5111179;28;19955;-72
2022/09/22 07:19:50;;;;;;;;;;;12.90;99.90;;;;;;5107031;28;20252;-73
2022/09/22 07:22:18;;;;;;;;;;;13.20;99.90;;;;;;5096516;28;19919;-72
2022/09/22 07:24:46;;;;;;;;;;;13.30;99.90;;;;;;5107069;28;20261;-73
2022/09/22 07:27:13;;;;;;;;;;;13.30;99.90;;;;;;5108855;28;19916;-72
2022/09/22 07:29:41;;;;;;;;;;;13.30;99.90;;;;;;5109566;28;19912;-75
2022/09/22 07:32:11;;;;;;;;;;;13.30;99.90;;;;;;5106836;28;19959;-73
2022/09/22 07:34:39;;;;;;;;;;;13.30;99.90;;;;;;5111330;28;19916;-75
2022/09/22 07:37:11;;;;;;;;;;;13.40;99.90;;;;;;5108992;28;19931;-72
2022/09/22 07:39:44;;;;;;;;;;;13.50;99.90;;;;;;5106849;28;19927;-73
2022/09/22 07:42:10;;;;;;;;;;;13.70;99.90;;;;;;5113839;27;19970;-73
2022/09/22 07:48:34;;;;;;;;;;;14.30;99.90;;;;;;5117988;27;19976;-74
2022/09/22 07:50:06;;;;;;;;;;;14.80;99.90;;;;;;5110999;28;20006;-73
2022/09/22 07:52:32;;;;;;;;;;;15.20;99.90;;;;;;5114079;28;19952;-73
2022/09/22 07:54:58;;;;;;;;;;;15.70;99.90;;;;;;5111841;27;20323;-74
2022/09/22 07:57:24;;;;;;;;;;;16.00;99.90;;;;;;5110678;28;20003;-79
2022/09/22 07:59:49;;;;;;;;;;;15.90;99.90;;;;;;5121073;27;19907;-73
2022/09/22 08:02:19;;;;;;;;;;;15.50;99.90;;;;;;5120523;27;20010;-73
2022/09/22 08:04:49;;;;;;;;;;;15.30;99.90;;;;;;5109633;27;19924;-73
2022/09/22 08:07:15;;;;;;;;;;;15.20;99.90;;;;;;5099502;28;19923;-72
2022/09/22 08:09:41;;;;;;;;;;;15.20;99.90;;;;;;5111141;27;19916;-73
2022/09/22 08:12:08;;;;;;;;;;;15.30;99.90;;;;;;5145173;27;20215;-73
2022/09/22 08:14:34;;;;;;;;;;;15.60;99.90;;;;;;5106531;27;20210;-74
2022/09/22 08:17:00;;;;;;;;;;;16.30;99.90;;;;;;5108393;27;19939;-74
2022/09/22 08:19:25;;;;;;;;;;;16.70;99.90;;;;;;5110985;27;20704;-73
2022/09/22 08:21:52;;;;;;;;;;;17.10;99.90;;;;;;5113706;27;19937;-73
2022/09/22 08:24:21;;;;;;;;;;;17.20;99.90;;;;;;5116541;27;19912;-73
2022/09/22 08:26:49;;;;;;;;;;;17.20;99.90;;;;;;5114029;27;19916;-73
2022/09/22 08:29:19;;;;;;;;;;;17.00;99.90;;;;;;5114698;27;20198;-73
2022/09/22 08:31:46;;;;;;;;;;;16.90;99.90;;;;;;5116092;27;19927;-73
2022/09/22 08:34:21;;;;;;;;;;;16.90;99.90;;;;;;5106559;27;19916;-73
2022/09/22 08:36:48;;;;;;;;;;;16.90;99.90;;;;;;5105747;28;19965;-73
2022/09/22 08:39:16;;;;;;;;;;;17.20;99.90;;;;;;5110248;28;19914;-72
2022/09/22 08:41:55;;;;;;;;;;;17.60;99.90;;;;;;5110401;28;19911;-73
2022/09/22 08:44:36;;;;;;;;;;;18.10;99.90;;;;;;5111312;28;19931;-73
2022/09/22 08:47:02;;;;;;;;;;;18.70;99.90;;;;;;5114622;27;19912;-74
2022/09/22 08:52:48;;;;;;;;;;;19.10;99.90;;;;;;5098336;28;20486;-73
2022/09/22 08:55:16;;;;;;;;;;;19.40;99.90;;;;;;5098922;28;20322;-73
2022/09/22 08:57:55;;;;;;;;;;;19.70;99.90;;;;;;5098003;28;19912;-73
2022/09/22 09:00:22;;;;;;;;;;;19.70;99.70;;;;;;5109335;28;19970;-73
2022/09/22 09:02:55;;;;;;;;;;;19.90;99.90;;;;;;5105105;28;19924;-74
2022/09/22 09:05:47;;;;;;;;;;;20.10;99.90;;;;;;5129051;27;19916;-73
2022/09/22 09:08:12;;;;;;;;;;;20.40;99.90;;;;;;5068991;28;19916;-73
2022/09/22 09:10:43;;;;;;;;;;;20.40;98.10;;;;;;5054729;28;20224;-73
2022/09/22 09:13:27;;;;;;;;;;;20.50;99.20;;;;;;5068615;28;20211;-73
2022/09/22 09:16:12;;;;;;;;;;;20.40;97.60;;;;;;5060628;28;19913;-73
2022/09/22 09:18:39;;;;;;;;;;;20.60;98.60;;;;;;5072120;28;19977;-73
2022/09/22 09:21:09;;;;;;;;;;;20.90;98.10;;;;;;5053454;28;20226;-73
2022/09/22 09:23:40;;;;;;;;;;;21.30;97.80;;;;;;5056551;28;19916;-73
2022/09/22 09:26:06;;;;;;;;;;;21.80;98.30;;;;;;5061380;28;20374;-73
2022/09/22 09:28:54;;;;;;;;;;;22.00;96.40;;;;;;5071628;28;20003;-72
2022/09/22 09:31:28;;;;;;;;;;;21.90;97.20;;;;;;5063980;28;20536;-73
2022/09/22 09:33:57;;;;;;;;;;;21.90;97.70;;;;;;5070218;28;20082;-73
2022/09/22 09:36:30;;;;;;;;;;;21.90;96.20;;;;;;5073760;28;19913;-72
2022/09/22 09:38:56;;;;;;;;;;;21.90;96.30;;;;;;5069479;28;19958;-73
2022/09/22 09:41:30;;;;;;;;;;;21.60;96.70;;;;;;5058397;28;19924;-73
2022/09/22 09:43:55;;;;;;;;;;;21.40;96.70;;;;;;5071623;28;19912;-73
2022/09/22 09:46:40;;;;;;;;;;;21.20;96.90;;;;;;5102660;28;20008;-74
2022/09/22 09:49:22;;;;;;;;;;;21.10;96.60;;;;;;5110085;28;19918;-73
2022/09/22 09:51:50;;;;;;;;;;;21.10;97.10;;;;;;5109286;28;19912;-73
2022/09/22 09:54:17;;;;;;;;;;;21.20;96.90;;;;;;5112367;28;19912;-73
2022/09/22 09:57:03;;;;;;;;;;;21.10;97.30;;;;;;5115287;27;19955;-73
2022/09/22 10:02:14;;;;;;;;;;;20.70;97.30;;;;;;5107801;28;20227;-73
2022/09/22 10:04:40;;;;;;;;;;;20.70;97.60;;;;;;5104831;28;19939;-72
2022/09/22 10:07:09;;;;;;;;;;;20.70;97.10;;;;;;5113102;28;20218;-73
2022/09/22 10:09:35;;;;;;;;;;;20.80;97.90;;;;;;5104639;28;19965;-72
2022/09/22 10:12:02;;;;;;;;;;;20.90;98.00;;;;;;5099644;27;19995;-74
2022/09/22 10:14:29;;;;;;;;;;;20.90;98.10;;;;;;5113973;27;19908;-72
2022/09/22 10:16:57;;;;;;;;;;;20.80;98.10;;;;;;5105189;28;19915;-73
2022/09/22 10:19:33;;;;;;;;;;;20.90;98.40;;;;;;5101791;28;19916;-72
2022/09/22 10:22:15;;;;;;;;;;;20.80;96.90;;;;;;5113243;28;20211;-72
2022/09/22 10:24:51;;;;;;;;;;;20.50;97.20;;;;;;5107174;28;19912;-73
2022/09/22 10:27:23;;;;;;;;;;;20.40;97.70;;;;;;5113379;28;20312;-72
2022/09/22 10:30:07;;;;;;;;;;;20.40;96.80;;;;;;5110390;28;19908;-73
2022/09/22 10:32:33;;;;;;;;;;;20.30;97.30;;;;;;5111107;28;20271;-73
2022/09/22 10:35:01;;;;;;;;;;;20.50;96.70;;;;;;5091033;27;19950;-73
2022/09/22 10:37:28;;;;;;;;;;;20.50;96.80;;;;;;5112170;28;19919;-73
2022/09/22 10:39:59;;;;;;;;;;;20.50;97.10;;;;;;5107361;27;19943;-73
2022/09/22 10:42:34;;;;;;;;;;;20.50;96.60;;;;;;5113059;27;19954;-73
2022/09/22 10:45:18;;;;;;;;;;;20.60;96.50;;;;;;5110417;28;19920;-73
2022/09/22 10:47:52;;;;;;;;;;;20.50;96.50;;;;;;5101793;28;19908;-73
2022/09/22 10:50:37;;;;;;;;;;;20.40;97.20;;;;;;5101856;28;19974;-73
2022/09/22 10:53:26;;;;;;;;;;;20.50;98.00;;;;;;5095353;28;19916;-73
2022/09/22 10:56:09;;;;;;;;;;;20.50;96.20;;;;;;5113575;28;19955;-73
2022/09/22 10:58:53;;;;;;;;;;;20.50;95.50;;;;;;5107028;28;19908;-73
2022/09/22 11:01:18;;;;;;;;;;;20.40;96.80;;;;;;5107937;28;19919;-72
2022/09/22 11:04:05;;;;;;;;;;;20.40;95.80;;;;;;5095469;28;19912;-73
2022/09/22 11:12:36;;;;;;;;;;;19.50;96.50;;;;;;5098492;28;19935;-73
2022/09/22 11:15:22;;;;;;;;;;;19.30;95.50;;;;;;5106855;27;20592;-73
2022/09/22 11:17:53;;;;;;;;;;;19.20;95.70;;;;;;5107352;27;19915;-73
2022/09/22 11:20:27;;;;;;;;;;;19.20;97.50;;;;;;5111816;28;19918;-73
2022/09/22 11:22:52;;;;;;;;;;;19.40;97.70;;;;;;5132214;27;19916;-74
2022/09/22 11:25:38;;;;;;;;;;;19.50;96.40;;;;;;5102825;28;20222;-73
2022/09/22 11:28:09;;;;;;;;;;;19.60;95.90;;;;;;5105875;28;19919;-73
2022/09/22 11:30:41;;;;;;;;;;;19.70;97.00;;;;;;5105628;28;19920;-73
2022/09/22 11:33:10;;;;;;;;;;;19.70;95.90;;;;;;5099092;28;20015;-73
2022/09/22 11:35:54;;;;;;;;;;;19.80;97.40;;;;;;5107789;28;19920;-73
2022/09/22 11:38:29;;;;;;;;;;;19.90;96.10;;;;;;5098222;28;19912;-73
2022/09/22 11:41:15;;;;;;;;;;;20.00;97.00;;;;;;5097468;28;19927;-73
2022/09/22 11:43:50;;;;;;;;;;;20.10;96.40;;;;;;5098263;28;19965;-73
2022/09/22 11:46:29;;;;;;;;;;;20.20;97.00;;;;;;5093458;28;19920;-72
2022/09/22 11:49:01;;;;;;;;;;;20.30;96.90;;;;;;5104616;28;19908;-73
2022/09/22 11:51:50;;;;;;;;;;;20.30;95.60;;;;;;5106578;28;19924;-74
2022/09/22 11:54:24;;;;;;;;;;;20.30;95.00;;;;;;5106796;28;19920;-73
2022/09/22 11:56:58;;;;;;;;;;;20.20;95.00;;;;;;5100723;28;20391;-72
2022/09/22 11:59:31;;;;;;;;;;;20.10;95.30;;;;;;5100713;28;19986;-73
2022/09/22 12:02:03;;;;;;;;;;;20.10;96.60;;;;;;5106511;28;20380;-73
2022/09/22 12:04:28;;;;;;;;;;;20.30;95.90;;;;;;5095831;28;20295;-73
2022/09/22 12:06:55;;;;;;;;;;;20.40;95.70;;;;;;5104264;28;19908;-74
2022/09/22 12:09:36;;;;;;;;;;;20.40;94.70;;;;;;5111524;28;19916;-73
2022/09/22 12:12:06;;;;;;;;;;;20.40;95.40;;;;;;5112490;28;20311;-74
2022/09/22 12:14:33;;;;;;;;;;;20.40;95.70;;;;;;5103206;28;20307;-73
2022/09/22 12:17:04;;;;;;;;;;;20.40;95.20;;;;;;5099657;28;19912;-73
2022/09/22 12:19:48;;;;;;;;;;;20.50;95.60;;;;;;5106690;28;19969;-73
2022/09/22 12:22:35;;;;;;;;;;;20.70;95.00;;;;;;5096890;28;19995;-73
2022/09/22 12:25:02;;;;;;;;;;;20.80;95.80;;;;;;5099258;27;19927;-74
2022/09/22 12:27:30;;;;;;;;;;;20.90;94.80;;;;;;5104469;28;19965;-74
2022/09/22 12:29:58;;;;;;;;;;;20.90;94.00;;;;;;5117835;28;19957;-73
2022/09/22 12:32:34;;;;;;;;;;;20.80;94.60;;;;;;5113933;28;20393;-73
2022/09/22 12:35:00;;;;;;;;;;;20.70;94.30;;;;;;5105207;27;19938;-74
2022/09/22 12:37:30;;;;;;;;;;;20.60;94.40;;;;;;5104279;28;20642;-74
2022/09/22 12:39:59;;;;;;;;;;;20.60;94.90;;;;;;5101446;28;20333;-76
2022/09/22 12:42:31;;;;;;;;;;;20.60;94.60;;;;;;5096207;27;19930;-74
2022/09/22 12:45:04;;;;;;;;;;;20.70;94.00;;;;;;5103907;28;20792;-73
2022/09/22 12:47:29;;;;;;;;;;;20.70;93.90;;;;;;5102358;27;19955;-75
2022/09/22 12:49:57;;;;;;;;;;;20.70;94.10;;;;;;5106519;27;19973;-75
2022/09/22 12:52:35;;;;;;;;;;;20.70;94.40;;;;;;5133336;27;19959;-74
2022/09/22 12:55:16;;;;;;;;;;;20.80;94.50;;;;;;5118240;27;20026;-74
2022/09/22 12:57:46;;;;;;;;;;;20.80;92.60;;;;;;5127832;27;19920;-75
2022/09/22 13:00:19;;;;;;;;;;;20.80;93.70;;;;;;5122746;27;19916;-74
2022/09/22 13:02:48;;;;;;;;;;;20.80;93.90;;;;;;5132813;27;20218;-74
2022/09/22 13:05:23;;;;;;;;;;;20.80;93.80;;;;;;5118801;27;19911;-74
2022/09/22 13:07:52;;;;;;;;;;;20.80;94.60;;;;;;5131218;27;19915;-74
2022/09/22 13:10:24;;;;;;;;;;;20.80;93.90;;;;;;5106292;28;19916;-75
2022/09/22 13:13:02;;;;;;;;;;;20.70;93.50;;;;;;5126964;27;19930;-73
2022/09/22 13:15:29;;;;;;;;;;;20.70;94.50;;;;;;5118037;27;19961;-73
2022/09/22 13:17:59;;;;;;;;;;;20.70;94.60;;;;;;5115973;28;19908;-73
2022/09/22 13:20:32;;;;;;;;;;;20.70;94.40;;;;;;5107588;27;19907;-73
2022/09/22 13:23:12;;;;;;;;;;;20.80;93.80;;;;;;5132212;27;19915;-73
2022/09/22 13:26:10;;;;;;;;;;;20.80;94.40;;;;;;5116351;27;20351;-73
2022/09/22 13:28:39;;;;;;;;;;;20.90;94.80;;;;;;5117486;27;19927;-73
2022/09/22 13:31:13;;;;;;;;;;;21.00;94.90;;;;;;5116245;27;19923;-73
2022/09/22 13:33:40;;;;;;;;;;;20.90;94.70;;;;;;5125571;27;20318;-73
2022/09/22 13:36:13;;;;;;;;;;;20.90;94.70;;;;;;5128544;27;20002;-74
2022/09/22 13:38:50;;;;;;;;;;;20.80;94.50;;;;;;5132752;27;19907;-73
2022/09/22 13:41:26;;;;;;;;;;;20.80;94.70;;;;;;5128902;27;19918;-74
2022/09/22 13:44:01;;;;;;;;;;;20.70;94.90;;;;;;5115616;27;20376;-75
2022/09/22 13:46:40;;;;;;;;;;;20.70;95.60;;;;;;5118047;27;20003;-74
2022/09/22 13:49:07;;;;;;;;;;;20.60;94.70;;;;;;5124905;27;19919;-75
2022/09/22 13:51:33;;;;;;;;;;;20.50;94.50;;;;;;5097463;27;19926;-73
2022/09/22 13:53:59;;;;;;;;;;;20.40;95.10;;;;;;5127829;27;20010;-73
2022/09/22 13:56:25;;;;;;;;;;;20.20;95.10;;;;;;5123913;27;20287;-73
2022/09/22 13:58:54;;;;;;;;;;;20.10;95.30;;;;;;5118370;27;19968;-74
2022/09/22 14:01:21;;;;;;;;;;;20.10;95.10;;;;;;5128384;27;19981;-73
2022/09/22 14:03:47;;;;;;;;;;;20.10;94.60;;;;;;5119212;27;19919;-74
2022/09/22 14:06:27;;;;;;;;;;;20.10;94.90;;;;;;5100749;28;20419;-73
2022/09/22 14:08:54;;;;;;;;;;;19.90;94.20;;;;;;5098136;27;19908;-73
2022/09/22 14:11:24;;;;;;;;;;;19.80;94.90;;;;;;5111072;27;19916;-74
2022/09/22 14:13:53;;;;;;;;;;;19.70;95.60;;;;;;5127039;27;19930;-74
2022/09/22 14:16:28;;;;;;;;;;;19.70;95.40;;;;;;5120211;27;19919;-74
2022/09/22 14:19:13;;;;;;;;;;;19.60;94.70;;;;;;5133193;27;19914;-74
2022/09/22 14:21:49;;;;;;;;;;;19.50;95.10;;;;;;5103651;27;19982;-74
2022/09/22 14:24:15;;;;;;;;;;;19.50;96.40;;;;;;5121450;27;19995;-73
2022/09/22 14:26:45;;;;;;;;;;;19.60;96.60;;;;;;5130437;27;20015;-74
2022/09/22 14:29:31;;;;;;;;;;;19.60;95.50;;;;;;5131722;27;20552;-74
2022/09/22 14:32:07;;;;;;;;;;;19.60;95.40;;;;;;5122715;27;19919;-73
2022/09/22 14:34:33;;;;;;;;;;;19.60;94.70;;;;;;5119509;27;20003;-73
2022/09/22 14:37:01;;;;;;;;;;;19.70;94.90;;;;;;5103747;28;20364;-73
2022/09/22 14:39:32;;;;;;;;;;;19.80;96.50;;;;;;5122041;27;19915;-73
2022/09/22 14:42:10;;;;;;;;;;;19.80;95.30;;;;;;5099740;28;19937;-73
2022/09/22 14:44:40;;;;;;;;;;;19.90;95.40;;;;;;5117232;27;19919;-73
2022/09/22 14:47:06;;;;;;;;;;;19.80;95.40;;;;;;5114172;28;19908;-74
2022/09/22 14:49:36;;;;;;;;;;;19.70;96.10;;;;;;5107320;28;20341;-73
2022/09/22 14:52:10;;;;;;;;;;;19.60;96.10;;;;;;5116696;27;19915;-74
2022/09/22 14:54:37;;;;;;;;;;;19.60;96.00;;;;;;5122864;27;20163;-74
2022/09/22 14:57:06;;;;;;;;;;;19.50;96.10;;;;;;5130202;27;19964;-73